Time;durP1;ratioP1;P1;durP2;ratioP2;P2;SDS_P1;SDS_P2;PMS_P1;PMS_P2;Temp;Humidity;BMP_temperature;BMP_pressure;BME280_temperature;BME280_humidity;BME280_pressure;Samples;Min_cycle;Max_cycle;Signal;HPM_P1;HPM_P2
2022/07/06 00:02:03;;;;;;;3.17;2.10;;;;;;;13.04;98.08;102526.16;5016441;28;20021;-52
2022/07/06 00:04:29;;;;;;;7.45;2.63;;;;;;;12.90;99.17;102523.88;5014903;28;20117;-51
2022/07/06 00:06:54;;;;;;;6.40;2.33;;;;;;;12.83;100.00;102526.25;4997219;28;20055;-49
2022/07/06 00:09:20;;;;;;;4.50;2.50;;;;;;;12.81;100.00;102532.69;5015324;28;20041;-51
2022/07/06 00:11:45;;;;;;;6.25;2.40;;;;;;;12.80;100.00;102537.22;5016018;28;20068;-53
2022/07/06 00:14:12;;;;;;;8.43;2.50;;;;;;;12.80;100.00;102531.88;5015924;28;20025;-51
2022/07/06 00:16:37;;;;;;;9.30;2.60;;;;;;;12.80;100.00;102531.03;5013922;28;20051;-52
2022/07/06 00:19:02;;;;;;;11.82;2.70;;;;;;;12.75;100.00;102534.09;5015349;28;20096;-49
2022/07/06 00:21:28;;;;;;;7.78;2.50;;;;;;;12.84;100.00;102532.44;5014314;28;20026;-50
2022/07/06 00:23:53;;;;;;;7.85;2.60;;;;;;;12.76;100.00;102533.09;5015359;28;20025;-52
2022/07/06 00:26:19;;;;;;;8.73;2.72;;;;;;;12.74;100.00;102534.22;5014810;28;20300;-50
2022/07/06 00:28:45;;;;;;;6.10;2.40;;;;;;;12.74;100.00;102540.44;5016297;28;20022;-50
2022/07/06 00:31:10;;;;;;;6.95;2.50;;;;;;;12.65;100.00;102536.72;5015173;28;20400;-51
2022/07/06 00:33:36;;;;;;;7.57;2.60;;;;;;;12.55;100.00;102538.50;5014869;28;20197;-51
2022/07/06 00:36:01;;;;;;;6.07;2.28;;;;;;;12.53;100.00;102535.13;5016012;28;20021;-51
2022/07/06 00:38:26;;;;;;;5.32;2.75;;;;;;;12.61;100.00;102527.25;5008956;28;20311;-48
2022/07/06 00:40:52;;;;;;;5.82;2.35;;;;;;;12.58;100.00;102527.53;5006505;28;20013;-49
2022/07/06 00:43:17;;;;;;;7.07;2.75;;;;;;;12.58;100.00;102532.88;5015382;28;20040;-52
2022/07/06 00:45:43;;;;;;;8.35;3.20;;;;;;;12.61;100.00;102524.59;5011081;28;20033;-52
2022/07/06 00:48:09;;;;;;;5.18;3.10;;;;;;;12.54;100.00;102533.28;5014692;28;20170;-51
2022/07/06 00:50:35;;;;;;;10.63;3.10;;;;;;;12.45;100.00;102526.88;5010344;28;20026;-50
2022/07/06 00:53:03;;;;;;;7.18;2.50;;;;;;;12.45;100.00;102532.25;5018787;28;20510;-49
2022/07/06 00:55:31;;;;;;;9.10;2.80;;;;;;;12.39;100.00;102530.06;5019037;28;20502;-51
2022/07/06 00:57:57;;;;;;;4.53;2.03;;;;;;;12.39;100.00;102530.94;5019517;28;20424;-49
2022/07/06 01:00:25;;;;;;;7.25;2.20;;;;;;;12.36;100.00;102525.00;5018305;28;20029;-51
2022/07/06 01:02:51;;;;;;;8.00;2.30;;;;;;;12.34;100.00;102529.63;5019720;28;20025;-50
2022/07/06 01:05:18;;;;;;;5.30;2.35;;;;;;;12.28;100.00;102531.84;5000344;28;20025;-48
2022/07/06 01:07:45;;;;;;;8.55;3.05;;;;;;;12.22;100.00;102534.19;5018406;28;20082;-49
2022/07/06 01:10:12;;;;;;;7.90;3.00;;;;;;;12.09;100.00;102529.88;5000669;28;20029;-49
2022/07/06 01:12:41;;;;;;;9.90;3.30;;;;;;;12.11;100.00;102530.59;5019100;28;20021;-50
2022/07/06 01:15:10;;;;;;;5.43;2.80;;;;;;;12.15;100.00;102525.81;5018410;28;20460;-49
2022/07/06 01:17:37;;;;;;;5.03;2.78;;;;;;;12.18;100.00;102525.56;5018933;28;20025;-50
2022/07/06 01:20:22;;;;;;;14.68;2.70;;;;;;;12.15;100.00;102528.50;5018398;28;20574;-48
2022/07/06 01:22:49;;;;;;;6.38;2.80;;;;;;;12.07;100.00;102521.13;5018770;28;20060;-49
2022/07/06 01:25:15;;;;;;;6.60;2.95;;;;;;;12.05;100.00;102525.78;5018362;28;20045;-49
2022/07/06 01:27:42;;;;;;;6.30;2.90;;;;;;;12.06;100.00;102523.94;5014084;28;20042;-48
2022/07/06 01:30:10;;;;;;;5.60;2.72;;;;;;;12.07;100.00;102529.16;5009024;28;20044;-49
2022/07/06 01:32:36;;;;;;;7.70;3.42;;;;;;;12.12;100.00;102532.31;5017791;28;20025;-51
2022/07/06 01:35:02;;;;;;;8.07;3.00;;;;;;;12.08;100.00;102520.16;4999966;28;20032;-50
2022/07/06 01:37:27;;;;;;;6.70;2.63;;;;;;;12.04;100.00;102518.72;5018013;28;20025;-51
2022/07/06 01:39:52;;;;;;;6.35;2.75;;;;;;;12.02;100.00;102525.19;5018174;28;20478;-47
2022/07/06 01:42:18;;;;;;;6.90;2.90;;;;;;;11.93;100.00;102511.59;5018410;28;20353;-49
2022/07/06 01:44:44;;;;;;;7.57;2.75;;;;;;;11.86;100.00;102514.88;5018443;28;20063;-51
2022/07/06 01:47:10;;;;;;;7.93;3.00;;;;;;;11.83;100.00;102518.66;5000707;28;20025;-48
2022/07/06 01:49:36;;;;;;;9.27;3.10;;;;;;;11.81;100.00;102523.28;5016433;28;20559;-50
2022/07/06 01:52:01;;;;;;;5.75;2.90;;;;;;;11.80;100.00;102526.09;5010841;28;20057;-52
2022/07/06 01:54:26;;;;;;;5.57;3.03;;;;;;;11.80;100.00;102515.41;5017470;28;20495;-50
2022/07/06 01:56:52;;;;;;;5.18;3.25;;;;;;;11.76;100.00;102521.00;5018364;28;20017;-51
2022/07/06 01:59:17;;;;;;;7.20;3.15;;;;;;;11.76;100.00;102523.69;5018305;28;20049;-47
2022/07/06 02:01:42;;;;;;;7.20;3.00;;;;;;;11.73;100.00;102523.94;4992020;28;20029;-52
2022/07/06 02:04:07;;;;;;;5.88;3.20;;;;;;;11.72;100.00;102522.22;5017236;28;20048;-51
2022/07/06 02:06:33;;;;;;;4.78;2.92;;;;;;;11.69;100.00;102519.81;5017105;28;20480;-48
2022/07/06 02:08:58;;;;;;;9.75;3.50;;;;;;;11.72;100.00;102521.38;5017581;28;20076;-52
2022/07/06 02:11:23;;;;;;;11.80;3.38;;;;;;;11.67;100.00;102531.63;4999262;28;20053;-52
2022/07/06 02:13:49;;;;;;;8.13;3.17;;;;;;;11.63;100.00;102525.66;5018050;28;20100;-48
2022/07/06 02:16:14;;;;;;;6.22;3.38;;;;;;;11.63;100.00;102527.50;5017832;28;20029;-49
2022/07/06 02:18:39;;;;;;;5.70;3.17;;;;;;;11.65;100.00;102522.88;5016976;28;20588;-48
2022/07/06 02:21:05;;;;;;;6.57;3.50;;;;;;;11.62;100.00;102529.31;5017075;28;20017;-50
2022/07/06 02:23:30;;;;;;;4.22;3.28;;;;;;;11.58;100.00;102527.88;5017426;28;20045;-51
2022/07/06 02:25:55;;;;;;;5.47;3.50;;;;;;;11.52;100.00;102528.38;5017143;28;20265;-52
2022/07/06 02:28:21;;;;;;;7.10;3.65;;;;;;;11.46;100.00;102527.06;5013917;28;20158;-48
2022/07/06 02:30:46;;;;;;;6.10;3.50;;;;;;;11.47;100.00;102539.47;5005468;28;20026;-52
2022/07/06 02:33:12;;;;;;;5.60;3.65;;;;;;;11.43;100.00;102529.97;5014974;28;20146;-50
2022/07/06 02:35:41;;;;;;;6.10;3.70;;;;;;;11.37;100.00;102526.00;5018094;28;20409;-51
2022/07/06 02:38:07;;;;;;;7.72;3.90;;;;;;;11.37;100.00;102525.13;5011657;28;20043;-49
2022/07/06 02:40:32;;;;;;;8.32;3.70;;;;;;;11.44;100.00;102522.78;4995361;28;20372;-51
2022/07/06 02:42:58;;;;;;;6.30;4.20;;;;;;;11.43;100.00;102523.78;5017605;28;20103;-51
2022/07/06 02:45:23;;;;;;;9.23;3.97;;;;;;;11.41;100.00;102531.09;5016991;28;20040;-51
2022/07/06 02:47:48;;;;;;;12.70;4.03;;;;;;;11.43;100.00;102529.97;5016238;28;20035;-51
2022/07/06 02:50:14;;;;;;;8.07;4.43;;;;;;;11.38;100.00;102530.34;5000170;28;20044;-51
2022/07/06 02:52:39;;;;;;;11.63;4.40;;;;;;;11.37;100.00;102525.13;5016846;28;20029;-48
2022/07/06 02:55:05;;;;;;;9.50;4.75;;;;;;;11.35;100.00;102533.28;5015902;28;20021;-50
2022/07/06 02:57:30;;;;;;;9.15;4.97;;;;;;;11.35;100.00;102533.28;5016725;28;20033;-52
2022/07/06 02:59:55;;;;;;;7.95;4.70;;;;;;;11.36;100.00;102531.47;5008785;28;20823;-49
2022/07/06 03:02:20;;;;;;;10.27;5.05;;;;;;;11.36;100.00;102531.47;5016964;28;20025;-49
2022/07/06 03:04:46;;;;;;;10.00;5.13;;;;;;;11.32;100.00;102532.66;5016559;28;20033;-49
2022/07/06 03:07:11;;;;;;;9.90;5.22;;;;;;;11.29;100.00;102539.13;5016080;28;20044;-51
2022/07/06 03:09:36;;;;;;;10.98;4.93;;;;;;;11.25;100.00;102539.50;4998184;28;20026;-49
2022/07/06 03:12:02;;;;;;;9.20;4.95;;;;;;;11.27;100.00;102541.09;5017018;28;20034;-48
2022/07/06 03:14:27;;;;;;;11.00;4.90;;;;;;;11.27;100.00;102537.53;5016263;28;20334;-49
2022/07/06 03:16:53;;;;;;;12.48;5.13;;;;;;;11.28;100.00;102541.94;5008354;28;20061;-50
2022/07/06 03:19:19;;;;;;;10.75;4.95;;;;;;;11.25;100.00;102537.66;5013862;28;20028;-51
2022/07/06 03:21:44;;;;;;;15.50;5.40;;;;;;;11.28;100.00;102531.22;5013162;28;20025;-49
2022/07/06 03:24:09;;;;;;;10.88;5.07;;;;;;;11.22;100.00;102537.94;5015906;28;20168;-51
2022/07/06 03:26:35;;;;;;;12.32;4.75;;;;;;;11.20;100.00;102532.69;4998296;28;20021;-50
2022/07/06 03:29:00;;;;;;;12.23;5.32;;;;;;;11.24;100.00;102535.13;4997307;28;20508;-50
2022/07/06 03:31:25;;;;;;;14.98;4.88;;;;;;;11.25;100.00;102539.50;4997688;28;20533;-51
2022/07/06 03:33:51;;;;;;;7.93;4.65;;;;;;;11.22;100.00;102537.06;5015720;28;20026;-49
2022/07/06 03:36:16;;;;;;;12.70;5.10;;;;;;;11.18;100.00;102539.13;5015943;28;20060;-51
2022/07/06 03:38:42;;;;;;;10.75;4.85;;;;;;;11.18;100.00;102548.03;5015939;28;20017;-48
2022/07/06 03:41:07;;;;;;;9.07;4.68;;;;;;;11.16;100.00;102539.25;4997571;28;20425;-49
2022/07/06 03:43:32;;;;;;;7.50;4.75;;;;;;;11.18;100.00;102540.00;5016558;28;20029;-49
2022/07/06 03:45:58;;;;;;;8.95;5.15;;;;;;;11.18;100.00;102528.44;4997149;28;20129;-49
2022/07/06 03:48:23;;;;;;;8.23;4.63;;;;;;;11.23;100.00;102528.06;5015465;28;20034;-51
2022/07/06 03:50:48;;;;;;;11.68;4.68;;;;;;;11.23;100.00;102533.44;5016140;28;20052;-50
2022/07/06 03:53:14;;;;;;;12.13;4.95;;;;;;;11.27;100.00;102533.06;4997642;28;20053;-48
2022/07/06 03:55:39;;;;;;;8.88;4.28;;;;;;;11.29;100.00;102538.28;5015928;28;20496;-50
2022/07/06 03:58:04;;;;;;;7.93;4.40;;;;;;;11.29;100.00;102540.97;5016038;28;20311;-47
2022/07/06 04:00:30;;;;;;;8.70;4.18;;;;;;;11.30;100.00;102540.84;5013966;28;20471;-50
2022/07/06 04:02:55;;;;;;;6.95;4.18;;;;;;;11.31;100.00;102536.34;5015008;28;20040;-50
2022/07/06 04:05:21;;;;;;;18.90;4.70;;;;;;;11.35;100.00;102540.44;5016022;28;20233;-48
2022/07/06 04:07:48;;;;;;;10.70;4.40;;;;;;;11.33;100.00;102537.06;5007655;28;20019;-50
2022/07/06 04:10:13;;;;;;;6.30;4.25;;;;;;;11.28;100.00;102531.22;5015237;28;20041;-48
2022/07/06 04:12:43;;;;;;;7.88;4.50;;;;;;;11.29;100.00;102530.25;5016163;28;20086;-49
2022/07/06 04:15:09;;;;;;;7.55;4.53;;;;;;;11.27;100.00;102534.88;5015840;28;20140;-48
2022/07/06 04:17:53;;;;;;;9.70;4.70;;;;;;;11.26;100.00;102535.84;5014971;28;20108;-47
2022/07/06 04:20:18;;;;;;;11.35;4.55;;;;;;;11.27;100.00;102527.72;5016464;28;20018;-49
2022/07/06 04:22:44;;;;;;;6.78;4.30;;;;;;;11.28;100.00;102531.22;5015099;28;20033;-48
2022/07/06 04:25:09;;;;;;;12.05;5.00;;;;;;;11.28;100.00;102532.06;5015079;28;20480;-49
2022/07/06 04:27:35;;;;;;;8.25;4.43;;;;;;;11.28;100.00;102525.88;5014657;28;20333;-47
2022/07/06 04:30:01;;;;;;;9.02;4.25;;;;;;;11.28;100.00;102531.22;5015790;28;20025;-48
2022/07/06 04:32:26;;;;;;;8.77;4.68;;;;;;;11.29;100.00;102527.59;5005615;28;20361;-46
2022/07/06 04:34:51;;;;;;;12.00;5.07;;;;;;;11.32;100.00;102527.31;4989592;28;20468;-48
2022/07/06 04:37:17;;;;;;;10.52;4.65;;;;;;;11.34;100.00;102533.41;4976318;28;20088;-50
2022/07/06 04:39:42;;;;;;;9.93;4.88;;;;;;;11.33;100.00;102527.19;5002714;28;20025;-50
2022/07/06 04:42:08;;;;;;;13.00;4.53;;;;;;;11.39;100.00;102533.91;4994110;28;20054;-48
2022/07/06 04:44:33;;;;;;;8.45;4.68;;;;;;;11.45;100.00;102521.84;4992621;28;20081;-49
2022/07/06 04:46:58;;;;;;;8.93;4.65;;;;;;;11.52;100.00;102523.88;4994475;28;20030;-48
2022/07/06 04:49:24;;;;;;;9.15;4.70;;;;;;;11.59;100.00;102524.22;4990583;28;20517;-52
2022/07/06 04:51:49;;;;;;;11.57;4.93;;;;;;;11.64;100.00;102513.97;4995178;28;20326;-48
2022/07/06 04:54:14;;;;;;;6.72;4.50;;;;;;;11.63;100.00;102528.34;4995158;28;20062;-50
2022/07/06 04:56:40;;;;;;;8.00;4.75;;;;;;;11.67;100.00;102529.78;4994617;28;20109;-47
2022/07/06 04:59:05;;;;;;;7.07;4.55;;;;;;;11.68;100.00;102525.31;4990517;28;20732;-49
2022/07/06 05:01:30;;;;;;;8.13;4.43;;;;;;;11.68;100.00;102536.00;4993219;28;20058;-50
2022/07/06 05:03:56;;;;;;;7.05;4.57;;;;;;;11.76;100.00;102536.19;4995504;28;20443;-71
2022/07/06 05:06:21;;;;;;;12.23;4.82;;;;;;;11.89;100.00;102533.34;4994376;28;20053;-46
2022/07/06 05:08:46;;;;;;;8.88;4.80;;;;;;;11.94;100.00;102532.03;4994448;28;20101;-45
2022/07/06 05:11:12;;;;;;;8.50;4.53;;;;;;;12.04;100.00;102534.78;4996220;28;20542;-46
2022/07/06 05:13:37;;;;;;;9.73;4.78;;;;;;;12.04;100.00;102533.94;4996357;28;20362;-47
2022/07/06 05:16:02;;;;;;;9.60;5.07;;;;;;;12.14;100.00;102545.56;4987867;28;20089;-48
2022/07/06 05:18:28;;;;;;;10.98;5.05;;;;;;;12.23;100.00;102551.97;5005920;28;20022;-47
2022/07/06 05:20:53;;;;;;;8.45;4.85;;;;;;;12.36;100.00;102554.47;5011856;28;20061;-46
2022/07/06 05:23:18;;;;;;;8.13;4.88;;;;;;;12.53;100.00;102551.19;5011933;28;20037;-45
2022/07/06 05:25:44;;;;;;;8.57;4.63;;;;;;;12.63;100.00;102557.47;5009464;28;20061;-48
2022/07/06 05:28:09;;;;;;;8.43;4.40;;;;;;;12.70;100.00;102552.41;5000088;28;20041;-46
2022/07/06 05:30:34;;;;;;;8.90;4.50;;;;;;;12.74;100.00;102547.63;5011289;28;20112;-46
2022/07/06 05:32:59;;;;;;;8.32;4.38;;;;;;;12.92;100.00;102546.03;4995381;28;20041;-50
2022/07/06 05:35:25;;;;;;;10.13;4.70;;;;;;;13.05;100.00;102556.50;5004281;28;20064;-48
2022/07/06 05:37:50;;;;;;;8.10;4.53;;;;;;;13.04;100.00;102552.16;5000539;28;20453;-45
2022/07/06 05:40:15;;;;;;;8.80;3.97;;;;;;;13.01;100.00;102547.03;4998455;28;20022;-49
2022/07/06 05:42:41;;;;;;;9.32;3.97;;;;;;;13.03;100.00;102548.63;5006763;28;20032;-49
2022/07/06 05:45:06;;;;;;;8.80;4.18;;;;;;;13.07;100.00;102544.69;5008717;28;20444;-47
2022/07/06 05:50:17;;;;;;;8.18;4.38;;;;;;;13.31;100.00;102551.53;4994917;28;20069;-46
2022/07/06 05:52:47;;;;;;;11.02;4.40;;;;;;;13.46;100.00;102556.53;4997932;28;20092;-47
2022/07/06 05:55:12;;;;;;;8.63;4.32;;;;;;;13.69;100.00;102554.44;4996629;28;20590;-46
2022/07/06 05:57:40;;;;;;;10.63;4.38;;;;;;;14.01;100.00;102554.19;4980302;28;20464;-50
2022/07/06 06:00:07;;;;;;;9.23;3.63;;;;;;;14.18;100.00;102558.00;5008373;28;20026;-45
2022/07/06 06:02:37;;;;;;;13.52;3.80;;;;;;;14.33;100.00;102561.09;5017691;28;20412;-44
2022/07/06 06:05:04;;;;;;;7.18;3.45;;;;;;;14.50;100.00;102562.19;5000958;28;20026;-49
2022/07/06 06:07:29;;;;;;;12.10;3.60;;;;;;;14.79;100.00;102564.81;5000053;28;20040;-47
2022/07/06 06:09:54;;;;;;;6.90;2.50;;;;;;;15.01;100.00;102563.59;4999486;28;20025;-47
2022/07/06 06:12:20;;;;;;;5.53;1.90;;;;;;;15.20;100.00;102568.03;5016746;28;20052;-48
2022/07/06 06:14:45;;;;;;;3.60;1.92;;;;;;;15.34;100.00;102572.06;5017809;28;20380;-48
2022/07/06 06:17:10;;;;;;;3.88;1.30;;;;;;;15.45;100.00;102571.88;5011782;28;20025;-48
2022/07/06 06:19:36;;;;;;;4.28;1.70;;;;;;;15.45;100.00;102568.34;5015850;28;20021;-46
2022/07/06 06:22:02;;;;;;;2.13;1.40;;;;;;;15.43;100.00;102565.81;5004656;28;20472;-47
2022/07/06 06:24:28;;;;;;;2.63;1.20;;;;;;;15.39;100.00;102568.94;4997205;28;20100;-47
2022/07/06 06:26:53;;;;;;;3.63;1.25;;;;;;;15.37;100.00;102570.94;5006932;28;20053;-46
2022/07/06 06:29:18;;;;;;;4.50;1.17;;;;;;;15.40;100.00;102567.97;4999266;28;20025;-47
2022/07/06 06:31:43;;;;;;;3.15;1.30;;;;;;;15.41;100.00;102570.50;5001555;28;20234;-51
2022/07/06 06:34:09;;;;;;;4.30;1.42;;;;;;;15.46;100.00;102568.22;4996904;28;20064;-47
2022/07/06 06:36:34;;;;;;;2.75;1.30;;;;;;;15.55;100.00;102566.44;4997453;28;20026;-47
2022/07/06 06:38:59;;;;;;;4.88;1.23;;;;;;;15.63;99.98;102569.22;4997801;28;20456;-49
2022/07/06 06:41:25;;;;;;;3.67;1.10;;;;;;;15.78;99.28;102572.28;4996996;28;20029;-47
2022/07/06 06:43:50;;;;;;;4.50;1.20;;;;;;;15.87;97.71;102575.91;4998331;28;20030;-48
2022/07/06 06:46:15;;;;;;;2.63;1.20;;;;;;;15.92;99.00;102568.19;4996062;28;20018;-45
2022/07/06 06:48:40;;;;;;;5.70;1.30;;;;;;;16.09;99.82;102571.88;5008291;28;20025;-49
2022/07/06 06:51:06;;;;;;;3.83;1.08;;;;;;;16.20;96.06;102576.19;4981454;28;20022;-46
2022/07/06 06:53:31;;;;;;;2.75;1.20;;;;;;;16.30;96.95;102576.09;5013983;28;20028;-49
2022/07/06 06:55:56;;;;;;;10.32;1.13;;;;;;;16.31;95.29;102578.63;5014876;28;20024;-48
2022/07/06 06:58:22;;;;;;;2.83;1.10;;;;;;;16.23;94.51;102574.00;4998459;28;20405;-48
2022/07/06 07:00:47;;;;;;;2.85;0.88;;;;;;;16.21;94.44;102578.72;5003572;28;20049;-46
2022/07/06 07:03:12;;;;;;;3.13;1.15;;;;;;;16.18;93.88;102581.72;5015985;28;20456;-46
2022/07/06 07:05:38;;;;;;;3.25;1.10;;;;;;;16.17;95.43;102587.25;5015626;28;20091;-48
2022/07/06 07:08:03;;;;;;;3.13;1.10;;;;;;;16.10;92.90;102580.81;5010995;28;20041;-49
2022/07/06 07:10:29;;;;;;;4.72;1.20;;;;;;;16.02;94.70;102582.44;5010652;28;20947;-45
2022/07/06 07:12:54;;;;;;;4.35;1.20;;;;;;;16.07;95.30;102573.88;4997394;28;20026;-50
2022/07/06 07:15:20;;;;;;;4.47;1.35;;;;;;;16.27;94.71;102577.25;4996157;28;20035;-50
2022/07/06 07:17:45;;;;;;;5.60;1.20;;;;;;;16.54;94.61;102581.66;4995055;28;20150;-51
2022/07/06 07:20:11;;;;;;;2.28;1.00;;;;;;;16.66;90.26;102584.09;5004424;28;20025;-47
2022/07/06 07:22:36;;;;;;;2.80;1.05;;;;;;;16.83;89.49;102577.78;4996954;28;20042;-45
2022/07/06 07:25:02;;;;;;;3.95;1.10;;;;;;;17.04;92.10;102584.66;4995463;28;20050;-48
2022/07/06 07:27:28;;;;;;;2.60;1.15;;;;;;;17.23;92.12;102589.84;4995148;28;20044;-46
2022/07/06 07:29:53;;;;;;;5.47;1.35;;;;;;;17.29;86.12;102582.94;4998329;28;20378;-45
2022/07/06 07:32:19;;;;;;;3.83;1.35;;;;;;;17.43;84.85;102582.31;4995080;28;20033;-49
2022/07/06 07:34:45;;;;;;;8.18;1.30;;;;;;;17.63;84.48;102582.84;4995573;28;20026;-48
2022/07/06 07:37:10;;;;;;;3.17;1.10;;;;;;;17.68;82.81;102587.78;4994772;28;20429;-49
2022/07/06 07:39:36;;;;;;;6.28;1.30;;;;;;;17.82;81.66;102583.56;5006487;28;20049;-47
2022/07/06 07:42:01;;;;;;;5.18;1.23;;;;;;;17.76;82.68;102589.66;5006478;28;20030;-49
2022/07/06 07:44:28;;;;;;;3.58;1.25;;;;;;;17.61;82.39;102589.44;4977573;28;20306;-47
2022/07/06 07:46:53;;;;;;;3.42;1.17;;;;;;;17.81;85.43;102584.59;4995651;28;20563;-49
2022/07/06 07:49:20;;;;;;;2.92;0.93;;;;;;;18.04;82.26;102580.28;4995217;28;20029;-49
2022/07/06 07:51:46;;;;;;;3.45;1.23;;;;;;;18.10;82.72;102575.19;4996351;28;20025;-48
2022/07/06 07:54:12;;;;;;;2.83;1.10;;;;;;;18.01;83.04;102585.16;4995849;28;20018;-48
2022/07/06 07:56:40;;;;;;;2.10;0.90;;;;;;;17.91;80.96;102584.47;4994846;28;20026;-48
2022/07/06 07:59:06;;;;;;;1.92;0.77;;;;;;;17.70;80.25;102585.75;4994990;28;20048;-49
2022/07/06 08:01:31;;;;;;;2.30;0.80;;;;;;;17.64;82.06;102589.13;5008547;28;20112;-50
2022/07/06 08:03:57;;;;;;;4.82;0.93;;;;;;;17.87;84.07;102581.25;5015155;28;20417;-48
2022/07/06 08:06:22;;;;;;;7.30;0.80;;;;;;;18.31;79.87;102571.97;5015376;28;20045;-47
2022/07/06 08:08:47;;;;;;;3.00;0.70;;;;;;;18.60;78.56;102574.13;5015724;28;20037;-46
2022/07/06 08:11:13;;;;;;;3.80;0.70;;;;;;;18.73;71.60;102566.31;5015441;28;20037;-48
2022/07/06 08:13:38;;;;;;;4.03;0.82;;;;;;;18.78;74.22;102568.50;5015759;28;20033;-48
2022/07/06 08:16:04;;;;;;;2.38;0.75;;;;;;;18.76;67.89;102575.97;5015317;28;20056;-48
2022/07/06 08:18:29;;;;;;;1.00;0.50;;;;;;;18.80;65.74;102569.19;5007097;28;20022;-46
2022/07/06 08:20:56;;;;;;;3.00;0.75;;;;;;;19.01;68.33;102576.78;5015526;28;20098;-52
2022/07/06 08:23:22;;;;;;;3.42;0.70;;;;;;;19.22;64.22;102570.75;5015364;28;20542;-49
2022/07/06 08:25:47;;;;;;;3.47;0.70;;;;;;;19.23;62.02;102566.16;5015113;28;20128;-50
2022/07/06 08:28:12;;;;;;;3.03;0.60;;;;;;;19.07;62.74;102570.63;5014481;28;20078;-48
2022/07/06 08:30:38;;;;;;;2.22;0.40;;;;;;;18.99;61.12;102571.53;5015363;28;20061;-50
2022/07/06 08:33:03;;;;;;;4.53;0.57;;;;;;;19.17;65.48;102571.28;5014840;28;20030;-49
2022/07/06 08:35:28;;;;;;;5.32;0.65;;;;;;;19.39;60.73;102568.81;5016309;28;20116;-49
2022/07/06 08:37:54;;;;;;;5.60;0.80;;;;;;;19.69;61.88;102572.53;5014960;28;20476;-49
2022/07/06 08:40:19;;;;;;;2.80;0.70;;;;;;;19.77;60.67;102568.09;5015325;28;20028;-48
2022/07/06 08:42:48;;;;;;;1.45;0.47;;;;;;;19.94;57.68;102565.09;5015823;28;20071;-50
2022/07/06 08:45:13;;;;;;;2.78;0.50;;;;;;;20.10;55.60;102563.28;5014510;28;20068;-48
2022/07/06 08:47:41;;;;;;;3.65;0.57;;;;;;;20.38;57.42;102562.69;5014669;28;20056;-51
2022/07/06 08:50:07;;;;;;;2.88;0.70;;;;;;;20.64;57.46;102554.16;5004556;28;20018;-52
2022/07/06 08:52:34;;;;;;;3.05;0.77;;;;;;;20.64;54.29;102559.56;5014945;28;20034;-50
2022/07/06 08:55:00;;;;;;;2.88;0.52;;;;;;;20.82;55.20;102556.47;5015393;28;20547;-51
2022/07/06 08:57:25;;;;;;;4.65;0.68;;;;;;;21.10;55.92;102550.38;5015662;28;20428;-48
2022/07/06 08:59:50;;;;;;;4.88;0.60;;;;;;;20.92;52.16;102550.75;5013899;28;20555;-51
2022/07/06 09:02:17;;;;;;;4.47;0.73;;;;;;;20.64;52.03;102552.25;5014375;28;20127;-48
2022/07/06 09:04:43;;;;;;;2.20;0.50;;;;;;;20.55;53.96;102555.22;5015779;28;20025;-51
2022/07/06 09:07:09;;;;;;;4.72;0.50;;;;;;;20.64;52.82;102554.97;5014939;28;20111;-47
2022/07/06 09:09:36;;;;;;;7.95;0.60;;;;;;;20.59;52.90;102557.38;5015827;28;20074;-49
2022/07/06 09:12:02;;;;;;;5.35;0.70;;;;;;;20.59;52.59;102551.13;5001191;28;20207;-50
2022/07/06 09:14:28;;;;;;;4.47;0.70;;;;;;;20.70;55.74;102557.97;5017459;28;20150;-49
2022/07/06 09:17:05;;;;;;;5.03;0.50;;;;;;;20.71;52.94;102554.25;5014541;28;20137;-51
2022/07/06 09:19:32;;;;;;;3.88;0.70;;;;;;;20.82;52.26;102553.75;4992924;28;20025;-51
2022/07/06 09:21:57;;;;;;;1.92;0.60;;;;;;;21.11;50.81;102552.88;5018568;28;20429;-48
2022/07/06 09:24:22;;;;;;;2.40;0.55;;;;;;;21.05;50.86;102554.50;5018056;28;20519;-50
2022/07/06 09:26:48;;;;;;;5.65;0.70;;;;;;;21.15;50.13;102556.91;5018619;28;20425;-49
2022/07/06 09:29:13;;;;;;;3.42;0.60;;;;;;;21.19;50.13;102552.78;4999892;28;20095;-49
2022/07/06 09:31:39;;;;;;;1.98;0.50;;;;;;;21.31;51.34;102555.00;5017172;28;20108;-50
2022/07/06 09:34:10;;;;;;;4.03;0.55;;;;;;;21.06;50.93;102560.75;5018672;28;20545;-50
2022/07/06 09:36:49;;;;;;;2.20;0.70;;;;;;;21.00;49.09;102564.25;5018147;28;20033;-52
2022/07/06 09:39:24;;;;;;;3.60;0.60;;;;;;;21.24;49.21;102558.47;5017482;28;20480;-50
2022/07/06 09:41:51;;;;;;;6.60;0.80;;;;;;;21.43;48.41;102564.34;5000468;28;20856;-51
2022/07/06 09:44:22;;;;;;;3.33;0.60;;;;;;;21.29;47.22;102557.91;5018588;28;20306;-51
2022/07/06 09:46:48;;;;;;;1.25;0.60;;;;;;;21.04;48.19;102566.41;4999610;28;20025;-47
2022/07/06 09:49:18;;;;;;;4.15;0.40;;;;;;;20.70;47.00;102568.84;5009241;28;20030;-50
2022/07/06 09:51:45;;;;;;;2.35;0.50;;;;;;;20.74;48.37;102571.00;5016753;28;20124;-49
2022/07/06 09:54:10;;;;;;;1.52;0.50;;;;;;;20.90;49.43;102561.81;5017698;28;20499;-50
2022/07/06 09:56:40;;;;;;;1.67;0.73;;;;;;;20.99;48.63;102567.97;5017962;28;20037;-48
2022/07/06 09:59:13;;;;;;;1.23;0.50;;;;;;;21.11;49.07;102576.50;5018074;28;20032;-51
2022/07/06 10:01:39;;;;;;;2.33;0.50;;;;;;;20.93;47.32;102561.44;5017054;28;20036;-50
2022/07/06 10:04:13;;;;;;;2.70;0.60;;;;;;;21.02;49.94;102573.03;5017197;28;20029;-50
2022/07/06 10:06:39;;;;;;;2.25;0.30;;;;;;;21.14;47.91;102578.84;5017773;28;20576;-48
2022/07/06 10:09:07;;;;;;;1.73;0.45;;;;;;;21.30;48.36;102572.34;5017111;28;20079;-51
2022/07/06 10:11:37;;;;;;;4.07;0.50;;;;;;;21.27;45.95;102570.03;5018078;28;20021;-51
2022/07/06 10:14:04;;;;;;;6.60;0.70;;;;;;;21.36;46.61;102572.41;5018386;28;20348;-48
2022/07/06 10:16:30;;;;;;;3.08;0.40;;;;;;;21.24;44.43;102574.78;5016219;28;20013;-49
2022/07/06 10:18:57;;;;;;;2.72;0.50;;;;;;;21.17;46.16;102575.75;5007981;28;20043;-48
2022/07/06 10:21:22;;;;;;;2.10;0.50;;;;;;;21.28;45.44;102575.25;5016551;28;20080;-51
2022/07/06 10:23:49;;;;;;;1.90;0.40;;;;;;;21.42;47.91;102579.00;5017876;28;20025;-51
2022/07/06 10:26:18;;;;;;;2.90;0.40;;;;;;;21.57;46.63;102585.25;5016717;28;20064;-51
2022/07/06 10:28:44;;;;;;;4.00;0.40;;;;;;;21.76;46.70;102569.34;5017842;28;20495;-50
2022/07/06 10:31:10;;;;;;;3.65;0.50;;;;;;;21.71;45.10;102567.22;5016711;28;20053;-49
2022/07/06 10:33:38;;;;;;;2.05;0.55;;;;;;;21.70;45.61;102575.56;5011676;28;20052;-51
2022/07/06 10:36:04;;;;;;;5.25;0.70;;;;;;;21.61;44.16;102572.94;4989355;28;20057;-50
2022/07/06 10:38:34;;;;;;;3.80;0.52;;;;;;;21.41;44.03;102569.97;5002332;28;20098;-51
2022/07/06 10:41:09;;;;;;;3.15;0.65;;;;;;;21.48;44.07;102574.69;5001967;28;20051;-50
2022/07/06 10:43:36;;;;;;;0.75;0.22;;;;;;;21.46;44.73;102577.56;4996645;28;20030;-51
2022/07/06 10:46:13;;;;;;;2.10;0.47;;;;;;;21.39;45.28;102571.22;4995135;28;20026;-50
2022/07/06 10:48:41;;;;;;;1.02;0.35;;;;;;;21.46;45.08;102572.13;5001834;28;20033;-47
2022/07/06 10:51:06;;;;;;;3.17;0.32;;;;;;;21.61;45.04;102564.81;4995730;28;20032;-48
2022/07/06 10:53:37;;;;;;;4.93;0.50;;;;;;;21.64;45.49;102570.88;5003325;28;20037;-50
2022/07/06 10:56:04;;;;;;;0.68;0.30;;;;;;;21.65;45.75;102559.81;4997078;28;20026;-50
2022/07/06 10:58:45;;;;;;;2.45;0.47;;;;;;;21.67;46.47;102565.06;5004185;28;20481;-50
2022/07/06 11:01:11;;;;;;;3.42;0.70;;;;;;;21.63;44.89;102563.78;5003407;28;20454;-50
2022/07/06 11:03:44;;;;;;;3.67;0.60;;;;;;;21.49;44.89;102558.19;4998554;28;20139;-48
2022/07/06 11:06:20;;;;;;;2.45;0.40;;;;;;;21.50;44.70;102553.59;4979056;28;20030;-50
2022/07/06 11:09:00;;;;;;;3.60;0.40;;;;;;;21.17;44.53;102562.16;4996720;28;20054;-49
2022/07/06 11:11:32;;;;;;;3.42;0.50;;;;;;;21.00;45.18;102558.81;4995826;28;20453;-48
2022/07/06 11:14:04;;;;;;;2.95;0.38;;;;;;;21.11;45.48;102571.91;4997283;28;20018;-50
2022/07/06 11:16:34;;;;;;;1.75;0.45;;;;;;;21.16;43.24;102564.03;5003678;28;20108;-48
2022/07/06 11:19:12;;;;;;;1.17;0.50;;;;;;;21.24;45.66;102563.91;4997057;28;20026;-50